createdAt,value
2023-05-05T00:02:22.810Z,4.28
2023-05-05T00:05:25.462Z,3.92
2023-05-05T00:08:28.568Z,6.93
2023-05-05T00:11:31.025Z,4.03
2023-05-05T00:14:33.445Z,4.03
2023-05-05T00:17:35.757Z,4.15
2023-05-05T00:20:38.260Z,4.40
2023-05-05T00:23:40.510Z,4.93
2023-05-05T00:26:42.748Z,3.90
2023-05-05T00:29:45.041Z,4.70
2023-05-05T00:32:51.178Z,4.70
2023-05-05T00:35:53.468Z,2.88
2023-05-05T00:38:55.768Z,3.75
2023-05-05T00:41:57.998Z,4.90
2023-05-05T00:45:00.302Z,5.03
2023-05-05T00:48:03.386Z,3.60
2023-05-05T00:51:08.880Z,3.70
2023-05-05T00:54:11.218Z,5.18
2023-05-05T00:57:13.579Z,4.22
2023-05-05T01:00:16.836Z,5.80
2023-05-05T01:03:19.274Z,4.32
2023-05-05T01:06:52.632Z,4.25
2023-05-05T01:10:18.123Z,5.75
2023-05-05T01:14:03.530Z,4.18
2023-05-05T01:17:23.141Z,3.93
2023-05-05T01:20:40.424Z,6.75
2023-05-05T01:24:36.818Z,3.95
2023-05-05T01:27:42.970Z,5.63
2023-05-05T01:31:03.428Z,4.97
2023-05-05T01:34:08.805Z,6.87
2023-05-05T01:37:21.790Z,5.28
2023-05-05T01:40:30.324Z,6.40
2023-05-05T01:43:35.248Z,6.50
2023-05-05T01:46:37.994Z,7.90
2023-05-05T01:49:41.081Z,4.33
2023-05-05T01:52:45.052Z,5.05
2023-05-05T01:55:49.408Z,4.90
2023-05-05T01:58:53.015Z,4.88
2023-05-05T02:01:57.521Z,5.90
2023-05-05T02:05:02.804Z,7.93
2023-05-05T02:08:06.722Z,7.10
2023-05-05T02:11:10.645Z,7.50
2023-05-05T02:14:15.326Z,6.88
2023-05-05T02:17:20.033Z,8.82
2023-05-05T02:20:24.019Z,7.07
2023-05-05T02:23:26.549Z,6.65
2023-05-05T02:26:33.292Z,6.18
2023-05-05T02:29:39.776Z,8.38
2023-05-05T02:32:53.602Z,7.55
2023-05-05T02:36:00.922Z,5.53
2023-05-05T02:39:10.915Z,5.70
2023-05-05T02:42:18.570Z,6.32
2023-05-05T02:45:22.575Z,5.97
2023-05-05T02:48:25.607Z,7.55
2023-05-05T02:51:29.366Z,9.60
2023-05-05T02:54:34.899Z,6.88
2023-05-05T02:57:51.557Z,9.57
2023-05-05T03:01:18.136Z,8.38
2023-05-05T03:04:27.846Z,11.10
2023-05-05T03:08:00.034Z,8.03
2023-05-05T03:11:08.091Z,8.30
2023-05-05T03:14:19.273Z,8.48
2023-05-05T03:17:25.571Z,7.00
2023-05-05T03:20:29.099Z,9.40
2023-05-05T03:23:33.737Z,13.73
2023-05-05T03:26:36.249Z,9.82
2023-05-05T03:29:38.587Z,9.07
2023-05-05T03:32:46.374Z,9.65
2023-05-05T03:35:49.574Z,11.32
2023-05-05T03:38:53.474Z,7.73
2023-05-05T03:41:56.958Z,7.47
2023-05-05T03:45:01.834Z,11.18
2023-05-05T03:48:04.747Z,8.07
2023-05-05T03:51:07.176Z,6.47
2023-05-05T03:54:10.775Z,6.67
2023-05-05T03:57:13.301Z,11.07
2023-05-05T04:00:16.602Z,8.98
2023-05-05T04:03:21.054Z,7.15
2023-05-05T04:06:23.667Z,6.75
2023-05-05T04:09:26.066Z,8.43
2023-05-05T04:12:28.692Z,11.50
2023-05-05T04:15:32.854Z,9.50
2023-05-05T04:18:36.335Z,9.75
2023-05-05T04:21:40.001Z,8.35
2023-05-05T04:24:42.462Z,19.97
2023-05-05T04:27:46.006Z,9.73
2023-05-05T04:30:49.707Z,9.43
2023-05-05T04:33:52.068Z,11.10
2023-05-05T04:36:54.707Z,7.50
2023-05-05T04:39:57.592Z,7.87
2023-05-05T04:43:00.226Z,9.63
2023-05-05T04:46:02.625Z,6.20
2023-05-05T04:49:09.350Z,6.85
2023-05-05T04:52:15.312Z,8.43
2023-05-05T04:55:17.918Z,6.43
2023-05-05T04:58:20.527Z,11.95
2023-05-05T05:01:23.075Z,6.57
2023-05-05T05:04:27.196Z,8.95
2023-05-05T05:07:29.558Z,6.45
2023-05-05T05:10:31.930Z,6.13
2023-05-05T05:13:34.476Z,6.78
2023-05-05T05:16:37.399Z,6.25
2023-05-05T05:19:39.958Z,10.63
2023-05-05T05:22:42.527Z,7.93
2023-05-05T05:25:49.699Z,6.37
2023-05-05T05:28:54.449Z,4.18
2023-05-05T05:31:56.757Z,10.15
2023-05-05T05:34:59.069Z,5.32
2023-05-05T05:38:02.401Z,5.43
2023-05-05T05:41:07.740Z,7.10
2023-05-05T05:44:11.966Z,5.50
2023-05-05T05:47:14.596Z,6.15
2023-05-05T05:50:17.555Z,7.50
2023-05-05T05:53:20.255Z,6.00
2023-05-05T05:56:22.933Z,5.17
2023-05-05T05:59:26.032Z,7.93
2023-05-05T06:02:28.473Z,5.75
2023-05-05T06:05:31.466Z,5.03
2023-05-05T06:08:34.192Z,6.55
2023-05-05T06:11:37.134Z,6.47
2023-05-05T06:14:39.580Z,5.50
2023-05-05T06:17:42.076Z,7.45
2023-05-05T06:20:44.970Z,5.13
2023-05-05T06:23:49.607Z,5.32
2023-05-05T06:26:51.920Z,5.47
2023-05-05T06:29:54.109Z,4.15
2023-05-05T06:32:56.363Z,4.40
2023-05-05T06:35:58.628Z,6.07
2023-05-05T06:39:01.021Z,4.43
2023-05-05T06:42:04.255Z,6.90
2023-05-05T06:45:07.028Z,8.00
2023-05-05T06:48:09.599Z,7.18
2023-05-05T06:51:12.061Z,6.68
2023-05-05T06:54:14.312Z,5.88
2023-05-05T06:57:16.685Z,9.97
2023-05-05T07:00:19.593Z,6.55
2023-05-05T07:03:21.990Z,5.15
2023-05-05T07:06:24.322Z,5.63
2023-05-05T07:09:26.546Z,5.75
2023-05-05T07:12:33.634Z,5.17
2023-05-05T07:15:36.091Z,5.00
2023-05-05T07:18:38.454Z,6.55
2023-05-05T07:21:40.767Z,5.03
2023-05-05T07:24:43.018Z,5.65
2023-05-05T07:27:45.405Z,7.80
2023-05-05T07:30:47.626Z,6.15
2023-05-05T07:33:49.922Z,5.93
2023-05-05T07:36:52.343Z,6.28
2023-05-05T07:39:54.774Z,6.57
2023-05-05T07:42:57.127Z,5.30
2023-05-05T07:45:59.392Z,6.45
2023-05-05T07:49:01.684Z,7.43
2023-05-05T07:52:04.518Z,5.55
2023-05-05T07:55:07.006Z,6.82
2023-05-05T07:58:11.108Z,7.97
2023-05-05T08:01:13.414Z,5.32
2023-05-05T08:04:15.732Z,4.70
2023-05-05T08:07:18.101Z,6.35
2023-05-05T08:10:22.356Z,7.75
2023-05-05T08:13:24.699Z,5.53
2023-05-05T08:16:27.054Z,5.00
2023-05-05T08:19:29.741Z,7.78
2023-05-05T08:22:33.304Z,9.90
2023-05-05T08:25:36.135Z,5.30
2023-05-05T08:28:38.445Z,5.50
2023-05-05T08:31:40.919Z,5.82
2023-05-05T08:34:43.267Z,8.60
2023-05-05T08:37:45.516Z,6.97
2023-05-05T08:40:48.025Z,8.10
2023-05-05T08:43:50.609Z,12.07
2023-05-05T08:46:53.664Z,9.70
2023-05-05T08:49:57.325Z,8.15
2023-05-05T08:53:09.036Z,11.45
2023-05-05T08:56:13.465Z,8.10
2023-05-05T08:59:16.994Z,7.77
2023-05-05T09:02:23.832Z,6.93
2023-05-05T09:05:27.026Z,4.93
2023-05-05T09:08:29.672Z,8.60
2023-05-05T09:11:34.647Z,8.13
2023-05-05T09:14:38.016Z,6.33
2023-05-05T09:17:41.000Z,5.93
2023-05-05T09:20:43.253Z,6.30
2023-05-05T09:24:08.095Z,8.23
2023-05-05T09:27:35.471Z,6.55
2023-05-05T09:30:38.856Z,7.73
2023-05-05T09:33:41.500Z,8.05
2023-05-05T09:36:47.680Z,7.82
2023-05-05T09:39:56.791Z,5.10
2023-05-05T09:43:03.512Z,6.25
2023-05-05T09:46:07.976Z,8.77
2023-05-05T09:49:16.393Z,6.18
2023-05-05T09:52:19.105Z,6.10
2023-05-05T09:55:21.686Z,5.55
2023-05-05T09:58:31.078Z,6.18
2023-05-05T10:01:33.455Z,7.23
2023-05-05T10:04:36.143Z,7.20
2023-05-05T10:07:40.185Z,8.15
2023-05-05T10:11:06.454Z,9.65
2023-05-05T10:14:09.074Z,6.80
2023-05-05T10:17:12.162Z,5.63
2023-05-05T10:20:16.160Z,4.35
2023-05-05T10:23:20.774Z,7.13
2023-05-05T10:26:23.545Z,4.82
2023-05-05T10:29:52.877Z,5.88
2023-05-05T10:33:18.211Z,5.17
2023-05-05T10:36:24.532Z,6.28
2023-05-05T10:39:28.110Z,6.97
2023-05-05T10:42:32.178Z,5.53
2023-05-05T10:45:34.797Z,6.35
2023-05-05T10:48:50.715Z,5.00
2023-05-05T10:52:29.256Z,5.47
2023-05-05T10:55:51.861Z,7.72
2023-05-05T10:59:00.111Z,6.30
2023-05-05T11:02:26.367Z,6.57
2023-05-05T11:05:28.668Z,5.33
2023-05-05T11:08:32.732Z,7.43
2023-05-05T11:12:04.511Z,7.75
2023-05-05T11:15:28.638Z,6.80
2023-05-05T11:18:37.842Z,8.48
2023-05-05T11:22:00.780Z,6.10
2023-05-05T11:25:35.557Z,4.50
2023-05-05T11:29:01.347Z,3.70
2023-05-05T11:32:14.755Z,5.30
2023-05-05T11:35:17.157Z,6.50
2023-05-05T11:38:25.634Z,6.13
2023-05-05T11:41:30.728Z,7.93
2023-05-05T11:44:34.537Z,6.15
2023-05-05T11:47:36.786Z,5.63
2023-05-05T11:50:40.015Z,6.53
2023-05-05T11:53:47.509Z,5.07
2023-05-05T11:56:51.270Z,5.60
2023-05-05T12:00:01.938Z,5.35
2023-05-05T12:03:07.074Z,5.50
2023-05-05T12:06:09.389Z,5.72
2023-05-05T12:09:29.639Z,6.03
2023-05-05T12:12:37.356Z,4.07
2023-05-05T12:15:39.702Z,6.28
2023-05-05T12:18:42.699Z,7.07
2023-05-05T12:21:45.762Z,6.80
2023-05-05T12:24:55.081Z,4.80
2023-05-05T12:27:57.404Z,4.72
2023-05-05T12:30:59.883Z,7.68
2023-05-05T12:34:03.696Z,4.88
2023-05-05T12:37:06.187Z,7.05
2023-05-05T12:40:45.258Z,5.37
2023-05-05T12:43:47.936Z,7.38
2023-05-05T12:46:52.949Z,5.82
2023-05-05T12:49:55.380Z,8.25
2023-05-05T12:52:57.895Z,5.70
2023-05-05T12:56:00.303Z,6.80
2023-05-05T12:59:07.746Z,7.68
2023-05-05T13:02:10.298Z,6.72
2023-05-05T13:05:12.687Z,5.07
2023-05-05T13:08:14.934Z,6.75
2023-05-05T13:11:18.572Z,5.23
2023-05-05T13:14:21.294Z,3.50
2023-05-05T13:17:23.548Z,4.65
2023-05-05T13:20:25.868Z,5.68
2023-05-05T13:23:28.162Z,5.60
2023-05-05T13:26:30.755Z,5.80
2023-05-05T13:29:33.602Z,4.30
2023-05-05T13:32:36.848Z,6.10
2023-05-05T13:35:39.181Z,5.95
2023-05-05T13:38:41.458Z,4.75
2023-05-05T13:41:44.820Z,6.57
2023-05-05T13:44:47.230Z,7.25
2023-05-05T13:47:49.524Z,4.35
2023-05-05T13:50:51.829Z,6.38
2023-05-05T13:53:54.073Z,6.60
2023-05-05T13:56:56.360Z,5.20
2023-05-05T13:59:58.580Z,5.25
2023-05-05T14:03:01.392Z,4.50
2023-05-05T14:06:03.754Z,5.53
2023-05-05T14:09:08.010Z,5.13
2023-05-05T14:12:10.288Z,5.23
2023-05-05T14:15:12.721Z,4.50
2023-05-05T14:18:14.927Z,5.85
2023-05-05T14:21:17.193Z,5.25
2023-05-05T14:24:19.489Z,4.15
2023-05-05T14:27:21.702Z,5.83
2023-05-05T14:30:24.136Z,4.30
2023-05-05T14:33:26.667Z,3.30
2023-05-05T14:36:28.980Z,5.20
2023-05-05T14:39:31.348Z,5.97
2023-05-05T14:42:33.703Z,4.40
2023-05-05T14:45:36.011Z,4.57
2023-05-05T14:48:38.595Z,5.07
2023-05-05T14:51:41.700Z,4.70
2023-05-05T14:54:43.953Z,3.50
2023-05-05T14:57:46.276Z,5.93
2023-05-05T15:00:48.564Z,3.67
2023-05-05T15:03:52.080Z,3.85
2023-05-05T15:06:54.587Z,4.25
2023-05-05T15:09:56.830Z,5.43
2023-05-05T15:12:59.180Z,4.33
2023-05-05T15:16:01.718Z,4.93
2023-05-05T15:19:04.008Z,4.10
2023-05-05T15:22:06.229Z,6.68
2023-05-05T15:25:12.318Z,7.53
2023-05-05T15:28:14.597Z,4.53
2023-05-05T15:31:16.941Z,5.65
2023-05-05T15:34:19.211Z,9.55
2023-05-05T15:37:21.628Z,9.30
2023-05-05T15:40:24.085Z,7.25
2023-05-05T15:43:26.379Z,6.30
2023-05-05T15:46:32.177Z,7.55
2023-05-05T15:49:34.460Z,5.30
2023-05-05T15:52:36.857Z,6.40
2023-05-05T15:55:40.245Z,5.15
2023-05-05T15:58:50.546Z,4.50
2023-05-05T16:02:00.825Z,6.00
2023-05-05T16:05:13.133Z,5.82
2023-05-05T16:08:15.783Z,5.93
2023-05-05T16:11:19.454Z,4.85
2023-05-05T16:14:22.931Z,3.73
2023-05-05T16:17:25.214Z,4.68
2023-05-05T16:20:27.447Z,4.50
2023-05-05T16:23:30.555Z,4.72
2023-05-05T16:26:32.916Z,5.30
2023-05-05T16:29:35.172Z,6.70
2023-05-05T16:32:38.663Z,4.03
2023-05-05T16:35:48.178Z,5.68
2023-05-05T16:38:50.934Z,5.05
2023-05-05T16:41:54.548Z,7.43
2023-05-05T16:44:56.819Z,5.67
2023-05-05T16:47:59.239Z,8.88
2023-05-05T16:51:01.547Z,4.10
2023-05-05T16:54:03.928Z,3.50
2023-05-05T16:57:06.248Z,4.63
2023-05-05T17:00:09.442Z,4.00
2023-05-05T17:03:11.699Z,4.10
2023-05-05T17:06:15.083Z,4.25
2023-05-05T17:09:17.469Z,6.40
2023-05-05T17:12:19.892Z,3.67
2023-05-05T17:15:22.326Z,7.37
2023-05-05T17:18:25.960Z,7.80
2023-05-05T17:21:29.380Z,7.72
2023-05-05T17:24:31.737Z,4.88
2023-05-05T17:27:34.040Z,4.30
2023-05-05T17:30:37.672Z,6.27
2023-05-05T17:33:39.952Z,4.80
2023-05-05T17:36:42.639Z,6.28
2023-05-05T17:39:44.977Z,4.85
2023-05-05T17:42:47.400Z,5.45
2023-05-05T17:45:49.800Z,6.03
2023-05-05T17:48:52.298Z,5.60
2023-05-05T17:51:54.551Z,4.82
2023-05-05T17:54:57.086Z,5.25
2023-05-05T17:57:59.544Z,5.15
2023-05-05T18:01:01.987Z,7.77
2023-05-05T18:04:04.575Z,10.18
2023-05-05T18:07:06.987Z,7.53
2023-05-05T18:10:10.782Z,7.75
2023-05-05T18:13:13.205Z,7.35
2023-05-05T18:16:15.649Z,5.53
2023-05-05T18:19:22.899Z,4.70
2023-05-05T18:22:25.382Z,4.10
2023-05-05T18:25:27.775Z,9.55
2023-05-05T18:28:30.053Z,8.35
2023-05-05T18:31:32.463Z,8.33
2023-05-05T18:34:35.976Z,5.90
2023-05-05T18:37:38.308Z,8.00
2023-05-05T18:40:40.728Z,8.52
2023-05-05T18:43:42.991Z,5.65
2023-05-05T18:46:47.009Z,9.40
2023-05-05T18:49:49.859Z,7.68
2023-05-05T18:52:52.552Z,8.18
2023-05-05T18:55:54.812Z,9.02
2023-05-05T18:58:57.249Z,6.90
2023-05-05T19:01:59.765Z,8.70
2023-05-05T19:05:02.120Z,12.07
2023-05-05T19:08:05.151Z,7.78
2023-05-05T19:11:07.458Z,9.30
2023-05-05T19:14:09.686Z,11.90
2023-05-05T19:17:12.043Z,8.53
2023-05-05T19:20:14.399Z,9.32
2023-05-05T19:23:16.770Z,8.00
2023-05-05T19:26:19.076Z,8.35
2023-05-05T19:29:21.408Z,11.70
2023-05-05T19:32:23.772Z,9.37
2023-05-05T19:35:26.113Z,16.23
2023-05-05T19:38:29.221Z,9.13
2023-05-05T19:41:31.745Z,10.75
2023-05-05T19:44:33.981Z,10.68
2023-05-05T19:47:36.348Z,15.07
2023-05-05T19:50:38.691Z,10.38
2023-05-05T19:53:42.888Z,10.30
2023-05-05T19:56:45.318Z,10.85
2023-05-05T19:59:49.868Z,11.60
2023-05-05T20:02:52.308Z,8.50
2023-05-05T20:05:54.664Z,9.68
2023-05-05T20:08:56.863Z,13.30
2023-05-05T20:11:59.463Z,12.60
2023-05-05T20:15:01.819Z,11.68
2023-05-05T20:18:04.228Z,12.13
2023-05-05T20:21:07.039Z,10.82
2023-05-05T20:24:09.717Z,12.90
2023-05-05T20:27:11.988Z,12.43
2023-05-05T20:30:14.514Z,11.60
2023-05-05T20:33:16.900Z,10.43
2023-05-05T20:36:19.403Z,10.15
2023-05-05T20:39:21.851Z,10.13
2023-05-05T20:42:25.620Z,9.27
2023-05-05T20:45:27.930Z,8.70
2023-05-05T20:48:30.239Z,9.87
2023-05-05T20:51:34.310Z,12.10
2023-05-05T20:54:36.646Z,8.27
2023-05-05T20:57:39.136Z,7.35
2023-05-05T21:00:41.543Z,8.27
2023-05-05T21:03:44.105Z,8.23
2023-05-05T21:06:46.922Z,12.40
2023-05-05T21:09:49.148Z,10.00
2023-05-05T21:12:51.535Z,9.15
2023-05-05T21:15:53.827Z,10.25
2023-05-05T21:18:56.155Z,9.87
2023-05-05T21:21:59.292Z,10.80
2023-05-05T21:25:16.561Z,9.32
2023-05-05T21:28:18.825Z,11.05
2023-05-05T21:31:22.458Z,11.48
2023-05-05T21:34:24.920Z,9.47
2023-05-05T21:37:27.193Z,12.10
2023-05-05T21:40:29.417Z,11.23
2023-05-05T21:43:31.700Z,11.02
2023-05-05T21:46:34.019Z,13.48
2023-05-05T21:49:36.414Z,10.87
2023-05-05T21:52:38.667Z,11.90
2023-05-05T21:55:40.936Z,12.32
2023-05-05T21:58:43.217Z,11.85
2023-05-05T22:01:45.583Z,11.95
2023-05-05T22:04:51.162Z,10.67
2023-05-05T22:07:54.200Z,11.60
2023-05-05T22:10:56.473Z,14.07
2023-05-05T22:13:58.785Z,12.98
2023-05-05T22:17:01.065Z,15.27
2023-05-05T22:20:05.058Z,11.93
2023-05-05T22:23:07.398Z,8.38
2023-05-05T22:26:10.273Z,9.52
2023-05-05T22:29:12.768Z,11.30
2023-05-05T22:32:15.087Z,12.85
2023-05-05T22:35:17.857Z,11.70
2023-05-05T22:38:20.159Z,11.30
2023-05-05T22:41:22.482Z,13.90
2023-05-05T22:44:24.753Z,11.27
2023-05-05T22:47:27.109Z,12.13
2023-05-05T22:50:29.546Z,10.60
2023-05-05T22:53:31.814Z,13.82
2023-05-05T22:56:34.237Z,11.52
2023-05-05T22:59:36.445Z,12.98
2023-05-05T23:02:38.941Z,10.73
2023-05-05T23:05:41.249Z,14.90
2023-05-05T23:08:43.718Z,10.57
2023-05-05T23:11:46.150Z,14.77
2023-05-05T23:14:50.069Z,9.02
2023-05-05T23:17:52.434Z,9.45
2023-05-05T23:20:54.691Z,12.07
2023-05-05T23:23:56.915Z,11.02
2023-05-05T23:27:02.141Z,12.95
2023-05-05T23:30:04.751Z,11.65
2023-05-05T23:33:07.051Z,11.40
2023-05-05T23:36:09.458Z,10.97
2023-05-05T23:39:11.797Z,9.15
2023-05-05T23:42:14.054Z,13.07
2023-05-05T23:45:19.227Z,9.95
2023-05-05T23:48:21.795Z,9.93
2023-05-05T23:51:24.392Z,10.20
2023-05-05T23:54:26.638Z,9.88
2023-05-05T23:57:28.937Z,10.57
